Terminal Aerodrome Forecast
Issued by NWS Wilmington, OH

Current Version | Previous Version | Text Only | Print | Product List | Glossary Off
Versions: 1 2 3 4 5 6 7 8 9 10 11 12 13 14 15 16 17 18

000
FTUS41 KILN 171700
TAFDAY
TAF
KDAY 171723Z 1718/1818 VRB03KT P6SM BKN035
     FM172300 VRB03KT P6SM SCT100
     FM181400 04007KT P6SM SCT040=

USA.gov is the U.S. government's official web portal to all federal, state and local government web resources and services.